sensor_id;sensor_type;location;lat;lon;timestamp;pressure;altitude;pressure_sealevel;temperature;humidity
20455;BME280;10386;54.314;10.022;2023-04-27T00:01:35;102001.91;;;3.19;100.00
20455;BME280;10386;54.314;10.022;2023-04-27T00:04:02;102002.97;;;3.12;100.00
20455;BME280;10386;54.314;10.022;2023-04-27T00:06:33;102002.97;;;3.12;100.00
20455;BME280;10386;54.314;10.022;2023-04-27T00:09:00;102002.13;;;3.09;100.00
20455;BME280;10386;54.314;10.022;2023-04-27T00:11:27;101994.06;;;3.10;100.00
20455;BME280;10386;54.314;10.022;2023-04-27T00:13:53;101995.84;;;3.10;100.00
20455;BME280;10386;54.314;10.022;2023-04-27T00:16:21;101984.97;;;3.16;100.00
20455;BME280;10386;54.314;10.022;2023-04-27T00:18:48;101980.53;;;3.15;100.00
20455;BME280;10386;54.314;10.022;2023-04-27T00:21:15;101977.84;;;3.15;100.00
20455;BME280;10386;54.314;10.022;2023-04-27T00:23:42;101991.47;;;3.06;100.00
20455;BME280;10386;54.314;10.022;2023-04-27T00:26:08;101985.25;;;3.04;100.00
20455;BME280;10386;54.314;10.022;2023-04-27T00:28:35;101980.97;;;2.95;100.00
20455;BME280;10386;54.314;10.022;2023-04-27T00:31:02;101981.81;;;2.99;100.00
20455;BME280;10386;54.314;10.022;2023-04-27T00:33:30;101981.81;;;2.97;100.00
20455;BME280;10386;54.314;10.022;2023-04-27T00:36:00;101984.69;;;2.90;100.00
20455;BME280;10386;54.314;10.022;2023-04-27T00:38:28;101971.41;;;2.84;100.00
20455;BME280;10386;54.314;10.022;2023-04-27T00:41:03;101978.53;;;2.85;100.00
20455;BME280;10386;54.314;10.022;2023-04-27T00:43:30;101985.81;;;2.80;100.00
20455;BME280;10386;54.314;10.022;2023-04-27T00:45:58;101977.03;;;2.72;100.00
20455;BME280;10386;54.314;10.022;2023-04-27T00:48:25;101973.66;;;2.64;100.00
20455;BME280;10386;54.314;10.022;2023-04-27T00:50:52;101977.00;;;2.73;100.00
20455;BME280;10386;54.314;10.022;2023-04-27T00:53:19;101974.38;;;2.72;100.00
20455;BME280;10386;54.314;10.022;2023-04-27T00:55:47;101973.59;;;2.66;100.00
20455;BME280;10386;54.314;10.022;2023-04-27T00:58:14;101973.78;;;2.57;100.00
20455;BME280;10386;54.314;10.022;2023-04-27T01:00:40;101975.50;;;2.61;100.00
20455;BME280;10386;54.314;10.022;2023-04-27T01:03:08;101978.09;;;2.65;100.00
20455;BME280;10386;54.314;10.022;2023-04-27T01:05:36;101968.28;;;2.64;100.00
20455;BME280;10386;54.314;10.022;2023-04-27T01:08:03;101971.94;;;2.60;100.00
20455;BME280;10386;54.314;10.022;2023-04-27T01:10:30;101972.94;;;2.56;100.00
20455;BME280;10386;54.314;10.022;2023-04-27T01:12:57;101972.03;;;2.54;100.00
20455;BME280;10386;54.314;10.022;2023-04-27T01:15:23;101977.41;;;2.54;100.00
20455;BME280;10386;54.314;10.022;2023-04-27T01:17:56;101972.22;;;2.45;100.00
20455;BME280;10386;54.314;10.022;2023-04-27T01:20:24;101977.91;;;2.30;100.00
20455;BME280;10386;54.314;10.022;2023-04-27T01:22:52;101970.66;;;2.35;100.00
20455;BME280;10386;54.314;10.022;2023-04-27T01:25:19;101981.41;;;2.34;100.00
20455;BME280;10386;54.314;10.022;2023-04-27T01:27:46;101971.63;;;2.31;100.00
20455;BME280;10386;54.314;10.022;2023-04-27T01:30:12;101979.94;;;2.18;100.00
20455;BME280;10386;54.314;10.022;2023-04-27T01:32:39;101971.13;;;2.13;100.00
20455;BME280;10386;54.314;10.022;2023-04-27T01:35:06;101968.47;;;2.11;100.00
20455;BME280;10386;54.314;10.022;2023-04-27T01:37:34;101965.72;;;2.14;100.00
20455;BME280;10386;54.314;10.022;2023-04-27T01:40:01;101960.31;;;2.17;100.00
20455;BME280;10386;54.314;10.022;2023-04-27T01:42:29;101967.47;;;2.15;100.00
20455;BME280;10386;54.314;10.022;2023-04-27T01:44:56;101957.81;;;2.08;100.00
20455;BME280;10386;54.314;10.022;2023-04-27T01:47:23;101965.94;;;2.02;100.00
20455;BME280;10386;54.314;10.022;2023-04-27T01:49:50;101968.06;;;1.85;100.00
20455;BME280;10386;54.314;10.022;2023-04-27T01:52:16;101968.91;;;1.87;100.00
20455;BME280;10386;54.314;10.022;2023-04-27T01:54:43;101967.31;;;1.77;100.00
20455;BME280;10386;54.314;10.022;2023-04-27T01:57:10;101961.88;;;1.82;100.00
20455;BME280;10386;54.314;10.022;2023-04-27T01:59:37;101972.72;;;1.74;100.00
20455;BME280;10386;54.314;10.022;2023-04-27T02:02:03;101968.41;;;1.64;100.00
20455;BME280;10386;54.314;10.022;2023-04-27T02:04:30;101971.88;;;1.71;100.00
20455;BME280;10386;54.314;10.022;2023-04-27T02:06:57;101971.09;;;1.64;100.00
20455;BME280;10386;54.314;10.022;2023-04-27T02:09:24;101975.72;;;1.53;100.00
20455;BME280;10386;54.314;10.022;2023-04-27T02:11:51;101982.00;;;1.54;100.00
20455;BME280;10386;54.314;10.022;2023-04-27T02:14:17;101975.84;;;1.47;100.00
20455;BME280;10386;54.314;10.022;2023-04-27T02:16:44;101976.53;;;1.60;100.00
20455;BME280;10386;54.314;10.022;2023-04-27T02:19:11;101981.19;;;1.49;100.00
20455;BME280;10386;54.314;10.022;2023-04-27T02:21:39;101979.31;;;1.54;100.00
20455;BME280;10386;54.314;10.022;2023-04-27T02:24:06;101968.34;;;1.67;100.00
20455;BME280;10386;54.314;10.022;2023-04-27T02:26:32;101963.47;;;1.92;100.00
20455;BME280;10386;54.314;10.022;2023-04-27T02:28:59;101965.66;;;2.17;100.00
20455;BME280;10386;54.314;10.022;2023-04-27T02:31:27;101963.56;;;2.33;100.00
20455;BME280;10386;54.314;10.022;2023-04-27T02:33:53;101955.28;;;2.45;100.00
20455;BME280;10386;54.314;10.022;2023-04-27T02:36:21;101950.59;;;2.54;100.00
20455;BME280;10386;54.314;10.022;2023-04-27T02:38:47;101952.41;;;2.54;100.00
20455;BME280;10386;54.314;10.022;2023-04-27T02:41:14;101953.19;;;2.59;100.00
20455;BME280;10386;54.314;10.022;2023-04-27T02:43:41;101954.16;;;2.56;100.00
20455;BME280;10386;54.314;10.022;2023-04-27T02:46:07;101950.66;;;2.51;100.00
20455;BME280;10386;54.314;10.022;2023-04-27T02:48:35;101958.75;;;2.50;100.00
20455;BME280;10386;54.314;10.022;2023-04-27T02:51:05;101953.47;;;2.45;100.00
20455;BME280;10386;54.314;10.022;2023-04-27T02:53:32;101942.75;;;2.45;100.00
20455;BME280;10386;54.314;10.022;2023-04-27T02:55:59;101950.91;;;2.39;100.00
20455;BME280;10386;54.314;10.022;2023-04-27T02:58:26;101940.25;;;2.36;100.00
20455;BME280;10386;54.314;10.022;2023-04-27T03:00:56;101942.88;;;2.41;100.00
20455;BME280;10386;54.314;10.022;2023-04-27T03:03:23;101948.25;;;2.39;100.00
20455;BME280;10386;54.314;10.022;2023-04-27T03:05:50;101945.56;;;2.39;100.00
20455;BME280;10386;54.314;10.022;2023-04-27T03:08:17;101951.09;;;2.32;100.00
20455;BME280;10386;54.314;10.022;2023-04-27T03:10:43;101945.97;;;2.20;100.00
20455;BME280;10386;54.314;10.022;2023-04-27T03:13:10;101945.88;;;2.24;100.00
20455;BME280;10386;54.314;10.022;2023-04-27T03:15:37;101946.84;;;2.20;100.00
20455;BME280;10386;54.314;10.022;2023-04-27T03:18:04;101946.72;;;2.26;100.00
20455;BME280;10386;54.314;10.022;2023-04-27T03:20:31;101951.34;;;2.20;100.00
20455;BME280;10386;54.314;10.022;2023-04-27T03:22:58;101951.53;;;2.09;100.00
20455;BME280;10386;54.314;10.022;2023-04-27T03:25:25;101950.31;;;2.25;100.00
20455;BME280;10386;54.314;10.022;2023-04-27T03:27:51;101949.41;;;2.28;100.00
20455;BME280;10386;54.314;10.022;2023-04-27T03:30:18;101950.84;;;2.42;100.00
20455;BME280;10386;54.314;10.022;2023-04-27T03:32:45;101947.25;;;2.43;100.00
20455;BME280;10386;54.314;10.022;2023-04-27T03:35:13;101939.09;;;2.51;100.00
20455;BME280;10386;54.314;10.022;2023-04-27T03:37:40;101945.56;;;2.39;100.00
20455;BME280;10386;54.314;10.022;2023-04-27T03:40:07;101942.81;;;2.44;100.00
20455;BME280;10386;54.314;10.022;2023-04-27T03:42:34;101945.16;;;2.59;100.00
20455;BME280;10386;54.314;10.022;2023-04-27T03:45:01;101941.63;;;2.57;100.00
20455;BME280;10386;54.314;10.022;2023-04-27T03:47:28;101946.84;;;2.63;100.00
20455;BME280;10386;54.314;10.022;2023-04-27T03:49:55;101947.91;;;2.54;100.00
20455;BME280;10386;54.314;10.022;2023-04-27T03:52:22;101948.81;;;2.56;100.00
20455;BME280;10386;54.314;10.022;2023-04-27T03:54:49;101961.44;;;2.50;100.00
20455;BME280;10386;54.314;10.022;2023-04-27T03:57:16;101952.44;;;2.52;100.00
20455;BME280;10386;54.314;10.022;2023-04-27T03:59:43;101964.13;;;2.50;100.00
20455;BME280;10386;54.314;10.022;2023-04-27T04:02:10;101960.59;;;2.46;100.00
20455;BME280;10386;54.314;10.022;2023-04-27T04:04:37;101952.56;;;2.46;100.00
20455;BME280;10386;54.314;10.022;2023-04-27T04:07:04;101960.72;;;2.42;100.00
20455;BME280;10386;54.314;10.022;2023-04-27T04:09:31;101965.34;;;2.32;100.00
20455;BME280;10386;54.314;10.022;2023-04-27T04:11:58;101973.50;;;2.26;100.00
20455;BME280;10386;54.314;10.022;2023-04-27T04:14:26;101969.97;;;2.24;100.00
20455;BME280;10386;54.314;10.022;2023-04-27T04:16:53;101959.28;;;2.24;100.00
20455;BME280;10386;54.314;10.022;2023-04-27T04:19:20;101968.16;;;2.26;100.00
20455;BME280;10386;54.314;10.022;2023-04-27T04:21:47;101970.72;;;2.32;100.00
20455;BME280;10386;54.314;10.022;2023-04-27T04:24:14;101974.25;;;2.34;100.00
20455;BME280;10386;54.314;10.022;2023-04-27T04:26:41;101967.84;;;2.43;100.00
20455;BME280;10386;54.314;10.022;2023-04-27T04:29:08;101967.66;;;2.50;100.00
20455;BME280;10386;54.314;10.022;2023-04-27T04:31:36;101966.66;;;2.57;100.00
20455;BME280;10386;54.314;10.022;2023-04-27T04:34:03;101975.16;;;2.77;100.00
20455;BME280;10386;54.314;10.022;2023-04-27T04:36:30;101976.78;;;2.82;100.00
20455;BME280;10386;54.314;10.022;2023-04-27T04:38:57;101974.81;;;2.92;100.00
20455;BME280;10386;54.314;10.022;2023-04-27T04:41:24;101963.00;;;3.00;100.00
20455;BME280;10386;54.314;10.022;2023-04-27T04:43:51;101973.69;;;3.02;100.00
20455;BME280;10386;54.314;10.022;2023-04-27T04:46:18;101966.41;;;3.08;100.00
20455;BME280;10386;54.314;10.022;2023-04-27T04:48:45;101962.59;;;3.17;100.00
20455;BME280;10386;54.314;10.022;2023-04-27T04:51:12;101965.44;;;3.11;100.00
20455;BME280;10386;54.314;10.022;2023-04-27T04:53:39;101967.91;;;3.20;100.00
20455;BME280;10386;54.314;10.022;2023-04-27T04:56:10;101970.13;;;3.38;100.00
20455;BME280;10386;54.314;10.022;2023-04-27T04:58:37;101973.66;;;3.41;100.00
20455;BME280;10386;54.314;10.022;2023-04-27T05:01:05;101971.66;;;3.49;100.00
20455;BME280;10386;54.314;10.022;2023-04-27T05:03:32;101968.66;;;3.63;100.00
20455;BME280;10386;54.314;10.022;2023-04-27T05:05:59;101965.72;;;3.72;100.00
20455;BME280;10386;54.314;10.022;2023-04-27T05:08:26;101965.50;;;3.79;100.00
20455;BME280;10386;54.314;10.022;2023-04-27T05:10:53;101966.19;;;3.89;100.00
20455;BME280;10386;54.314;10.022;2023-04-27T05:13:20;101969.44;;;4.01;100.00
20455;BME280;10386;54.314;10.022;2023-04-27T05:15:47;101964.81;;;4.06;100.00
20455;BME280;10386;54.314;10.022;2023-04-27T05:18:14;101975.09;;;4.22;100.00
20455;BME280;10386;54.314;10.022;2023-04-27T05:20:41;101975.56;;;4.38;100.00
20455;BME280;10386;54.314;10.022;2023-04-27T05:23:07;101979.09;;;4.70;100.00
20455;BME280;10386;54.314;10.022;2023-04-27T05:25:34;101990.50;;;4.80;100.00
20455;BME280;10386;54.314;10.022;2023-04-27T05:28:08;101997.00;;;5.02;100.00
20455;BME280;10386;54.314;10.022;2023-04-27T05:30:36;102001.72;;;4.94;100.00
20455;BME280;10386;54.314;10.022;2023-04-27T05:33:03;101998.84;;;4.69;100.00
20455;BME280;10386;54.314;10.022;2023-04-27T05:35:31;102007.31;;;4.56;100.00
20455;BME280;10386;54.314;10.022;2023-04-27T05:37:58;102001.66;;;4.34;100.00
20455;BME280;10386;54.314;10.022;2023-04-27T05:40:25;102006.22;;;4.31;100.00
20455;BME280;10386;54.314;10.022;2023-04-27T05:42:52;102001.91;;;4.25;100.00
20455;BME280;10386;54.314;10.022;2023-04-27T05:45:19;102000.06;;;4.27;100.00
20455;BME280;10386;54.314;10.022;2023-04-27T05:47:47;101998.06;;;4.35;100.00
20455;BME280;10386;54.314;10.022;2023-04-27T05:50:14;101996.13;;;4.40;100.00
20455;BME280;10386;54.314;10.022;2023-04-27T05:52:40;101991.22;;;4.54;100.00
20455;BME280;10386;54.314;10.022;2023-04-27T05:55:07;101999.03;;;4.63;100.00
20455;BME280;10386;54.314;10.022;2023-04-27T05:57:34;101996.97;;;4.73;100.00
20455;BME280;10386;54.314;10.022;2023-04-27T06:00:02;101994.28;;;4.73;100.00
20455;BME280;10386;54.314;10.022;2023-04-27T06:02:34;101996.72;;;4.80;100.00
20455;BME280;10386;54.314;10.022;2023-04-27T06:05:01;102001.19;;;4.81;100.00
20455;BME280;10386;54.314;10.022;2023-04-27T06:07:34;102005.38;;;4.91;100.00
20455;BME280;10386;54.314;10.022;2023-04-27T06:10:21;102000.53;;;5.02;100.00
20455;BME280;10386;54.314;10.022;2023-04-27T06:12:48;102008.44;;;5.08;100.00
20455;BME280;10386;54.314;10.022;2023-04-27T06:15:15;102006.59;;;5.10;100.00
20455;BME280;10386;54.314;10.022;2023-04-27T06:17:42;102001.59;;;5.27;100.00
20455;BME280;10386;54.314;10.022;2023-04-27T06:20:10;101997.06;;;5.28;100.00
20455;BME280;10386;54.314;10.022;2023-04-27T06:22:38;102000.00;;;6.02;100.00
20455;BME280;10386;54.314;10.022;2023-04-27T06:25:05;101999.88;;;7.26;100.00
20455;BME280;10386;54.314;10.022;2023-04-27T06:27:33;102002.28;;;8.19;100.00
20455;BME280;10386;54.314;10.022;2023-04-27T06:29:59;102013.97;;;8.61;100.00
20455;BME280;10386;54.314;10.022;2023-04-27T06:32:26;102034.84;;;8.77;100.00
20455;BME280;10386;54.314;10.022;2023-04-27T06:34:53;102045.69;;;8.77;100.00
20455;BME280;10386;54.314;10.022;2023-04-27T06:37:20;102045.00;;;9.12;100.00
20455;BME280;10386;54.314;10.022;2023-04-27T06:39:47;102060.06;;;9.18;100.00
20455;BME280;10386;54.314;10.022;2023-04-27T06:42:13;102063.72;;;9.37;100.00
20455;BME280;10386;54.314;10.022;2023-04-27T06:44:40;102071.56;;;9.23;100.00
20455;BME280;10386;54.314;10.022;2023-04-27T06:47:07;102075.59;;;9.53;100.00
20455;BME280;10386;54.314;10.022;2023-04-27T06:49:34;102089.78;;;9.94;100.00
20455;BME280;10386;54.314;10.022;2023-04-27T06:52:01;102102.41;;;9.58;100.00
20455;BME280;10386;54.314;10.022;2023-04-27T06:54:28;102098.09;;;9.55;100.00
20455;BME280;10386;54.314;10.022;2023-04-27T06:56:55;102101.81;;;9.52;100.00
20455;BME280;10386;54.314;10.022;2023-04-27T06:59:21;102107.78;;;9.02;100.00
20455;BME280;10386;54.314;10.022;2023-04-27T07:01:48;102108.44;;;8.67;100.00
20455;BME280;10386;54.314;10.022;2023-04-27T07:04:15;102107.28;;;8.31;100.00
20455;BME280;10386;54.314;10.022;2023-04-27T07:06:42;102112.66;;;8.32;100.00
20455;BME280;10386;54.314;10.022;2023-04-27T07:09:09;102122.78;;;8.05;100.00
20455;BME280;10386;54.314;10.022;2023-04-27T07:11:52;102122.28;;;7.49;100.00
20455;BME280;10386;54.314;10.022;2023-04-27T07:14:19;102116.13;;;7.69;100.00
20455;BME280;10386;54.314;10.022;2023-04-27T07:16:46;102120.44;;;7.74;100.00
20455;BME280;10386;54.314;10.022;2023-04-27T07:19:13;102112.94;;;7.81;100.00
20455;BME280;10386;54.314;10.022;2023-04-27T07:21:40;102120.53;;;7.94;100.00
20455;BME280;10386;54.314;10.022;2023-04-27T07:24:07;102107.19;;;8.11;100.00
20455;BME280;10386;54.314;10.022;2023-04-27T07:26:34;102106.53;;;8.05;100.00
20455;BME280;10386;54.314;10.022;2023-04-27T07:29:02;102113.50;;;8.12;100.00
20455;BME280;10386;54.314;10.022;2023-04-27T07:31:44;102110.72;;;8.13;100.00
20455;BME280;10386;54.314;10.022;2023-04-27T07:34:11;102115.31;;;8.11;100.00
20455;BME280;10386;54.314;10.022;2023-04-27T07:36:38;102115.47;;;8.51;100.00
20455;BME280;10386;54.314;10.022;2023-04-27T07:39:05;102106.22;;;8.35;100.00
20455;BME280;10386;54.314;10.022;2023-04-27T07:41:33;102108.84;;;8.58;100.00
20455;BME280;10386;54.314;10.022;2023-04-27T07:44:01;102106.47;;;8.90;100.00
20455;BME280;10386;54.314;10.022;2023-04-27T07:46:28;102100.94;;;8.73;100.00
20455;BME280;10386;54.314;10.022;2023-04-27T07:48:57;102093.88;;;8.49;100.00
20455;BME280;10386;54.314;10.022;2023-04-27T07:51:25;102091.84;;;8.74;100.00
20455;BME280;10386;54.314;10.022;2023-04-27T07:53:54;102091.81;;;8.76;100.00
20455;BME280;10386;54.314;10.022;2023-04-27T07:56:21;102097.69;;;8.85;100.00
20455;BME280;10386;54.314;10.022;2023-04-27T07:58:48;102101.41;;;8.83;100.00
20455;BME280;10386;54.314;10.022;2023-04-27T08:01:15;102100.47;;;8.84;100.00
20455;BME280;10386;54.314;10.022;2023-04-27T08:03:44;102089.50;;;9.45;100.00
20455;BME280;10386;54.314;10.022;2023-04-27T08:06:12;102089.63;;;8.84;100.00
20455;BME280;10386;54.314;10.022;2023-04-27T08:08:39;102097.00;;;8.60;100.00
20455;BME280;10386;54.314;10.022;2023-04-27T08:11:10;102096.31;;;8.34;100.00
20455;BME280;10386;54.314;10.022;2023-04-27T08:13:37;102089.78;;;8.81;100.00
20455;BME280;10386;54.314;10.022;2023-04-27T08:16:04;102078.00;;;8.62;100.00
20455;BME280;10386;54.314;10.022;2023-04-27T08:18:31;102074.00;;;8.29;100.00
20455;BME280;10386;54.314;10.022;2023-04-27T08:20:58;102089.53;;;8.24;100.00
20455;BME280;10386;54.314;10.022;2023-04-27T08:23:26;102076.69;;;8.70;100.00
20455;BME280;10386;54.314;10.022;2023-04-27T08:25:56;102058.44;;;9.14;100.00
20455;BME280;10386;54.314;10.022;2023-04-27T08:28:23;102033.53;;;9.62;100.00
20455;BME280;10386;54.314;10.022;2023-04-27T08:30:50;102020.28;;;10.10;100.00
20455;BME280;10386;54.314;10.022;2023-04-27T08:33:17;102030.22;;;10.28;100.00
20455;BME280;10386;54.314;10.022;2023-04-27T08:35:44;102031.50;;;10.21;100.00
20455;BME280;10386;54.314;10.022;2023-04-27T08:38:11;102029.91;;;10.51;100.00
20455;BME280;10386;54.314;10.022;2023-04-27T08:40:42;102010.91;;;10.51;100.00
20455;BME280;10386;54.314;10.022;2023-04-27T08:43:13;101999.25;;;10.32;100.00
20455;BME280;10386;54.314;10.022;2023-04-27T08:45:46;102006.91;;;9.89;100.00
20455;BME280;10386;54.314;10.022;2023-04-27T08:48:13;102027.34;;;9.96;100.00
20455;BME280;10386;54.314;10.022;2023-04-27T08:50:42;102047.75;;;9.67;100.00
20455;BME280;10386;54.314;10.022;2023-04-27T08:53:20;102040.56;;;9.48;100.00
20455;BME280;10386;54.314;10.022;2023-04-27T08:55:48;102040.16;;;9.92;100.00
20455;BME280;10386;54.314;10.022;2023-04-27T08:58:15;102030.38;;;10.25;100.00
20455;BME280;10386;54.314;10.022;2023-04-27T09:00:43;102028.75;;;10.89;100.00
20455;BME280;10386;54.314;10.022;2023-04-27T09:03:24;102010.63;;;10.05;100.00
20455;BME280;10386;54.314;10.022;2023-04-27T09:05:51;102020.06;;;9.96;100.00
20455;BME280;10386;54.314;10.022;2023-04-27T09:08:43;102011.72;;;10.36;100.00
20455;BME280;10386;54.314;10.022;2023-04-27T09:11:11;101987.81;;;10.26;100.00
20455;BME280;10386;54.314;10.022;2023-04-27T09:13:39;101992.06;;;10.65;100.00
20455;BME280;10386;54.314;10.022;2023-04-27T09:16:07;101985.84;;;11.28;100.00
20455;BME280;10386;54.314;10.022;2023-04-27T09:18:35;101961.06;;;10.52;100.00
20455;BME280;10386;54.314;10.022;2023-04-27T09:21:03;101960.03;;;10.38;100.00
20455;BME280;10386;54.314;10.022;2023-04-27T09:23:37;101967.72;;;9.94;100.00
20455;BME280;10386;54.314;10.022;2023-04-27T09:26:06;101975.00;;;9.94;100.00
20455;BME280;10386;54.314;10.022;2023-04-27T09:28:39;101955.00;;;10.64;100.00
20455;BME280;10386;54.314;10.022;2023-04-27T09:31:06;101933.94;;;10.85;100.00
20455;BME280;10386;54.314;10.022;2023-04-27T09:33:38;101941.75;;;10.91;100.00
20455;BME280;10386;54.314;10.022;2023-04-27T09:36:05;101956.72;;;10.82;100.00
20455;BME280;10386;54.314;10.022;2023-04-27T09:38:32;101977.75;;;11.26;100.00
20455;BME280;10386;54.314;10.022;2023-04-27T09:40:59;101957.63;;;10.98;100.00
20455;BME280;10386;54.314;10.022;2023-04-27T09:43:28;101958.56;;;10.82;100.00
20455;BME280;10386;54.314;10.022;2023-04-27T09:45:56;101977.56;;;11.62;100.00
20455;BME280;10386;54.314;10.022;2023-04-27T09:48:24;101938.25;;;11.04;100.00
20455;BME280;10386;54.314;10.022;2023-04-27T09:50:51;101912.31;;;10.34;100.00
20455;BME280;10386;54.314;10.022;2023-04-27T09:53:33;101926.75;;;10.17;100.00
20455;BME280;10386;54.314;10.022;2023-04-27T10:07:14;102026.81;;;10.06;100.00
20455;BME280;10386;54.314;10.022;2023-04-27T10:09:44;102027.25;;;10.16;100.00
20455;BME280;10386;54.314;10.022;2023-04-27T10:12:26;102015.53;;;10.66;100.00
20455;BME280;10386;54.314;10.022;2023-04-27T10:14:55;101996.06;;;10.58;100.00
20455;BME280;10386;54.314;10.022;2023-04-27T10:17:32;101987.97;;;10.57;100.00
20455;BME280;10386;54.314;10.022;2023-04-27T10:20:06;101996.72;;;10.96;100.00
20455;BME280;10386;54.314;10.022;2023-04-27T10:22:44;101965.63;;;10.52;100.00
20455;BME280;10386;54.314;10.022;2023-04-27T10:25:20;101966.34;;;10.38;100.00
20455;BME280;10386;54.314;10.022;2023-04-27T10:30:17;101944.00;;;11.30;100.00
20455;BME280;10386;54.314;10.022;2023-04-27T10:32:55;101880.53;;;10.68;100.00
20455;BME280;10386;54.314;10.022;2023-04-27T10:35:43;101901.16;;;10.88;100.00
20455;BME280;10386;54.314;10.022;2023-04-27T10:38:15;101911.19;;;10.70;100.00
20455;BME280;10386;54.314;10.022;2023-04-27T10:40:44;101911.47;;;10.81;100.00
20455;BME280;10386;54.314;10.022;2023-04-27T10:43:13;101893.16;;;11.17;100.00
20455;BME280;10386;54.314;10.022;2023-04-27T10:45:42;101881.91;;;11.38;100.00
20455;BME280;10386;54.314;10.022;2023-04-27T10:48:13;101877.25;;;11.09;100.00
20455;BME280;10386;54.314;10.022;2023-04-27T10:50:41;101884.44;;;10.95;100.00
20455;BME280;10386;54.314;10.022;2023-04-27T10:53:10;101925.28;;;10.94;100.00
20455;BME280;10386;54.314;10.022;2023-04-27T10:55:36;101967.34;;;11.02;100.00
20455;BME280;10386;54.314;10.022;2023-04-27T10:58:03;101937.72;;;10.65;100.00
20455;BME280;10386;54.314;10.022;2023-04-27T11:00:38;101961.63;;;10.91;100.00
20455;BME280;10386;54.314;10.022;2023-04-27T11:03:17;101945.97;;;10.96;100.00
20455;BME280;10386;54.314;10.022;2023-04-27T11:05:47;101954.34;;;10.59;100.00
20455;BME280;10386;54.314;10.022;2023-04-27T11:08:18;101990.09;;;10.84;100.00
20455;BME280;10386;54.314;10.022;2023-04-27T11:10:48;102015.03;;;10.75;100.00
20455;BME280;10386;54.314;10.022;2023-04-27T11:13:18;102035.66;;;10.62;100.00
20455;BME280;10386;54.314;10.022;2023-04-27T11:15:53;102079.72;;;11.01;100.00
20455;BME280;10386;54.314;10.022;2023-04-27T11:18:22;102105.53;;;11.26;100.00
20455;BME280;10386;54.314;10.022;2023-04-27T11:20:51;102109.69;;;11.16;100.00
20455;BME280;10386;54.314;10.022;2023-04-27T11:23:31;102140.09;;;11.07;100.00
20455;BME280;10386;54.314;10.022;2023-04-27T11:26:14;102138.81;;;10.28;100.00
20455;BME280;10386;54.314;10.022;2023-04-27T11:28:42;102160.41;;;9.93;100.00
20455;BME280;10386;54.314;10.022;2023-04-27T11:31:09;102177.09;;;9.65;100.00
20455;BME280;10386;54.314;10.022;2023-04-27T11:33:37;102174.91;;;9.73;100.00
20455;BME280;10386;54.314;10.022;2023-04-27T11:36:16;102166.00;;;10.45;100.00
20455;BME280;10386;54.314;10.022;2023-04-27T11:38:43;102169.47;;;10.30;100.00
20455;BME280;10386;54.314;10.022;2023-04-27T11:41:10;102163.19;;;10.47;100.00
20455;BME280;10386;54.314;10.022;2023-04-27T11:43:43;102160.38;;;10.31;100.00
20455;BME280;10386;54.314;10.022;2023-04-27T11:46:12;102153.88;;;10.34;100.00
20455;BME280;10386;54.314;10.022;2023-04-27T11:48:39;102166.59;;;10.33;100.00
20455;BME280;10386;54.314;10.022;2023-04-27T11:51:09;102171.41;;;10.45;100.00
20455;BME280;10386;54.314;10.022;2023-04-27T11:53:38;102165.72;;;10.68;100.00
20455;BME280;10386;54.314;10.022;2023-04-27T11:56:06;102170.63;;;10.79;100.00
20455;BME280;10386;54.314;10.022;2023-04-27T11:58:37;102153.72;;;10.37;100.00
20455;BME280;10386;54.314;10.022;2023-04-27T12:01:05;102154.19;;;10.28;100.00
20455;BME280;10386;54.314;10.022;2023-04-27T12:03:33;102144.63;;;10.38;100.00
20455;BME280;10386;54.314;10.022;2023-04-27T12:06:01;102141.22;;;10.34;100.00
20455;BME280;10386;54.314;10.022;2023-04-27T12:08:30;102155.38;;;10.58;100.00
20455;BME280;10386;54.314;10.022;2023-04-27T12:10:57;102143.16;;;10.49;100.00
20455;BME280;10386;54.314;10.022;2023-04-27T12:13:24;102144.03;;;10.50;100.00
20455;BME280;10386;54.314;10.022;2023-04-27T12:15:50;102133.56;;;10.42;100.00
20455;BME280;10386;54.314;10.022;2023-04-27T12:18:17;102130.56;;;10.11;100.00
20455;BME280;10386;54.314;10.022;2023-04-27T12:20:44;102134.31;;;10.27;100.00
20455;BME280;10386;54.314;10.022;2023-04-27T12:23:11;102137.25;;;10.58;100.00
20455;BME280;10386;54.314;10.022;2023-04-27T12:25:38;102132.91;;;10.90;100.00
20455;BME280;10386;54.314;10.022;2023-04-27T12:28:06;102097.81;;;10.68;100.00
20455;BME280;10386;54.314;10.022;2023-04-27T12:30:33;102093.06;;;10.55;100.00
20455;BME280;10386;54.314;10.022;2023-04-27T12:33:00;102078.84;;;10.50;100.00
20455;BME280;10386;54.314;10.022;2023-04-27T12:35:29;102054.28;;;10.17;100.00
20455;BME280;10386;54.314;10.022;2023-04-27T12:37:57;102057.75;;;10.21;100.00
20455;BME280;10386;54.314;10.022;2023-04-27T12:40:24;102051.97;;;9.91;100.00
20455;BME280;10386;54.314;10.022;2023-04-27T12:42:51;102078.47;;;10.05;100.00
20455;BME280;10386;54.314;10.022;2023-04-27T12:45:18;102071.56;;;9.79;100.00
20455;BME280;10386;54.314;10.022;2023-04-27T12:47:45;102070.69;;;9.60;100.00
20455;BME280;10386;54.314;10.022;2023-04-27T12:50:29;102119.41;;;9.80;100.00
20455;BME280;10386;54.314;10.022;2023-04-27T12:52:57;102137.75;;;9.94;100.00
20455;BME280;10386;54.314;10.022;2023-04-27T12:55:23;102176.59;;;10.50;100.00
20455;BME280;10386;54.314;10.022;2023-04-27T12:57:56;102144.44;;;10.05;100.00